sensor_id;sensor_type;location;lat;lon;timestamp;pressure;altitude;pressure_sealevel;temperature;humidity
20021;BME280;10171;42.694;23.318;2023-09-07T00:01:54;95521.78;;;21.39;68.73
20021;BME280;10171;42.694;23.318;2023-09-07T00:04:20;95522.56;;;21.39;68.46
20021;BME280;10171;42.694;23.318;2023-09-07T00:06:48;95516.41;;;21.40;68.33
20021;BME280;10171;42.694;23.318;2023-09-07T00:09:15;95511.81;;;21.34;68.13
20021;BME280;10171;42.694;23.318;2023-09-07T00:11:41;95515.56;;;21.32;68.23
20021;BME280;10171;42.694;23.318;2023-09-07T00:14:06;95507.88;;;21.22;68.11
20021;BME280;10171;42.694;23.318;2023-09-07T00:16:33;95517.50;;;21.30;68.31
20021;BME280;10171;42.694;23.318;2023-09-07T00:19:04;95515.88;;;21.29;68.11
20021;BME280;10171;42.694;23.318;2023-09-07T00:21:30;95509.22;;;21.34;67.85
20021;BME280;10171;42.694;23.318;2023-09-07T00:23:55;95515.91;;;21.37;68.32
20021;BME280;10171;42.694;23.318;2023-09-07T00:26:21;95513.94;;;21.31;68.62
20021;BME280;10171;42.694;23.318;2023-09-07T00:28:46;95516.66;;;21.29;68.61
20021;BME280;10171;42.694;23.318;2023-09-07T00:31:12;95516.19;;;21.26;68.67
20021;BME280;10171;42.694;23.318;2023-09-07T00:33:37;95511.00;;;21.26;69.06
20021;BME280;10171;42.694;23.318;2023-09-07T00:36:03;95479.06;;;21.08;69.44
20021;BME280;10171;42.694;23.318;2023-09-07T00:38:29;95508.69;;;21.23;69.19
20021;BME280;10171;42.694;23.318;2023-09-07T00:40:54;95509.97;;;21.19;69.38
20021;BME280;10171;42.694;23.318;2023-09-07T00:43:20;95509.66;;;21.22;70.12
20021;BME280;10171;42.694;23.318;2023-09-07T00:45:46;95514.97;;;21.12;70.59
20021;BME280;10171;42.694;23.318;2023-09-07T00:48:12;95510.94;;;21.18;70.02
20021;BME280;10171;42.694;23.318;2023-09-07T00:50:39;95504.59;;;21.20;70.32
20021;BME280;10171;42.694;23.318;2023-09-07T00:53:05;95497.94;;;21.18;70.00
20021;BME280;10171;42.694;23.318;2023-09-07T00:55:33;95495.75;;;21.05;70.34
20021;BME280;10171;42.694;23.318;2023-09-07T00:58:01;95502.63;;;21.14;69.70
20021;BME280;10171;42.694;23.318;2023-09-07T01:00:27;95510.78;;;21.19;70.01
20021;BME280;10171;42.694;23.318;2023-09-07T01:02:52;95506.50;;;21.10;69.77
20021;BME280;10171;42.694;23.318;2023-09-07T01:05:19;95508.78;;;21.13;69.77
20021;BME280;10171;42.694;23.318;2023-09-07T01:07:53;95506.50;;;21.10;69.94
20021;BME280;10171;42.694;23.318;2023-09-07T01:10:19;95500.16;;;21.05;70.27
20021;BME280;10171;42.694;23.318;2023-09-07T01:12:46;95498.56;;;21.12;70.13
20021;BME280;10171;42.694;23.318;2023-09-07T01:15:12;95495.81;;;21.13;69.94
20021;BME280;10171;42.694;23.318;2023-09-07T01:17:38;95505.56;;;21.19;70.23
20021;BME280;10171;42.694;23.318;2023-09-07T01:20:04;95504.56;;;21.12;70.11
20021;BME280;10171;42.694;23.318;2023-09-07T01:22:37;95512.22;;;21.14;70.52
20021;BME280;10171;42.694;23.318;2023-09-07T01:25:04;95507.34;;;21.11;70.89
20021;BME280;10171;42.694;23.318;2023-09-07T01:27:35;95507.66;;;21.08;71.02
20021;BME280;10171;42.694;23.318;2023-09-07T01:30:01;95510.59;;;21.13;71.10
20021;BME280;10171;42.694;23.318;2023-09-07T01:32:28;95490.78;;;21.12;70.88
20021;BME280;10171;42.694;23.318;2023-09-07T01:34:57;95507.69;;;21.16;71.13
20021;BME280;10171;42.694;23.318;2023-09-07T01:37:23;95507.34;;;21.11;71.16
20021;BME280;10171;42.694;23.318;2023-09-07T01:39:49;95499.19;;;21.06;71.71
20021;BME280;10171;42.694;23.318;2023-09-07T01:42:15;95485.28;;;20.90;71.83
20021;BME280;10171;42.694;23.318;2023-09-07T01:44:40;95505.78;;;21.01;72.12
20021;BME280;10171;42.694;23.318;2023-09-07T01:47:06;95508.69;;;20.98;72.27
20021;BME280;10171;42.694;23.318;2023-09-07T01:49:31;95508.56;;;20.99;72.63
20021;BME280;10171;42.694;23.318;2023-09-07T01:51:57;95515.16;;;20.94;72.90
20021;BME280;10171;42.694;23.318;2023-09-07T01:54:22;95502.31;;;20.84;73.54
20021;BME280;10171;42.694;23.318;2023-09-07T01:56:48;95510.28;;;20.91;73.04
20021;BME280;10171;42.694;23.318;2023-09-07T01:59:17;95509.78;;;20.87;73.28
20021;BME280;10171;42.694;23.318;2023-09-07T02:01:42;95504.41;;;20.89;73.17
20021;BME280;10171;42.694;23.318;2023-09-07T02:04:08;95501.53;;;20.92;73.52
20021;BME280;10171;42.694;23.318;2023-09-07T02:06:33;95496.84;;;20.78;73.40
20021;BME280;10171;42.694;23.318;2023-09-07T02:08:58;95510.88;;;20.85;73.68
20021;BME280;10171;42.694;23.318;2023-09-07T02:11:24;95505.47;;;20.78;73.86
20021;BME280;10171;42.694;23.318;2023-09-07T02:13:49;95509.25;;;20.84;73.92
20021;BME280;10171;42.694;23.318;2023-09-07T02:16:15;95507.25;;;20.78;73.93
20021;BME280;10171;42.694;23.318;2023-09-07T02:18:42;95508.50;;;20.74;74.19
20021;BME280;10171;42.694;23.318;2023-09-07T02:21:11;95505.78;;;20.75;73.92
20021;BME280;10171;42.694;23.318;2023-09-07T02:23:36;95513.88;;;20.72;74.46
20021;BME280;10171;42.694;23.318;2023-09-07T02:26:02;95503.13;;;20.67;74.04
20021;BME280;10171;42.694;23.318;2023-09-07T02:28:28;95503.38;;;20.56;74.80
20021;BME280;10171;42.694;23.318;2023-09-07T02:30:54;95509.94;;;20.68;74.60
20021;BME280;10171;42.694;23.318;2023-09-07T02:33:19;95515.13;;;20.68;74.31
20021;BME280;10171;42.694;23.318;2023-09-07T02:35:47;95515.28;;;20.67;74.74
20021;BME280;10171;42.694;23.318;2023-09-07T02:38:13;95513.94;;;20.63;74.63
20021;BME280;10171;42.694;23.318;2023-09-07T02:40:44;95517.69;;;20.60;74.86
20021;BME280;10171;42.694;23.318;2023-09-07T02:43:11;95513.28;;;20.61;75.17
20021;BME280;10171;42.694;23.318;2023-09-07T02:45:36;95519.13;;;20.63;75.39
20021;BME280;10171;42.694;23.318;2023-09-07T02:48:02;95511.66;;;20.60;75.10
20021;BME280;10171;42.694;23.318;2023-09-07T02:50:33;95511.00;;;20.58;75.53
20021;BME280;10171;42.694;23.318;2023-09-07T02:52:59;95516.47;;;20.55;75.75
20021;BME280;10171;42.694;23.318;2023-09-07T02:55:26;95516.28;;;20.48;75.95
20021;BME280;10171;42.694;23.318;2023-09-07T02:57:51;95514.72;;;20.55;76.09
20021;BME280;10171;42.694;23.318;2023-09-07T03:00:17;95517.16;;;20.57;75.46
20021;BME280;10171;42.694;23.318;2023-09-07T03:02:43;95516.13;;;20.50;75.85
20021;BME280;10171;42.694;23.318;2023-09-07T03:05:09;95514.66;;;20.47;76.04
20021;BME280;10171;42.694;23.318;2023-09-07T03:07:35;95526.88;;;20.55;76.34
20021;BME280;10171;42.694;23.318;2023-09-07T03:10:00;95516.59;;;20.45;76.73
20021;BME280;10171;42.694;23.318;2023-09-07T03:12:27;95514.88;;;20.36;77.37
20021;BME280;10171;42.694;23.318;2023-09-07T03:14:53;95512.44;;;20.35;77.18
20021;BME280;10171;42.694;23.318;2023-09-07T03:17:18;95521.41;;;20.40;77.15
20021;BME280;10171;42.694;23.318;2023-09-07T03:19:46;95515.56;;;20.38;77.67
20021;BME280;10171;42.694;23.318;2023-09-07T03:22:12;95514.94;;;20.27;78.39
20021;BME280;10171;42.694;23.318;2023-09-07T03:24:38;95505.91;;;20.31;77.90
20021;BME280;10171;42.694;23.318;2023-09-07T03:27:03;95520.06;;;20.36;78.53
20021;BME280;10171;42.694;23.318;2023-09-07T03:29:30;95515.78;;;20.27;78.59
20021;BME280;10171;42.694;23.318;2023-09-07T03:31:58;95516.88;;;20.25;79.25
20021;BME280;10171;42.694;23.318;2023-09-07T03:34:24;95525.91;;;20.21;79.49
20021;BME280;10171;42.694;23.318;2023-09-07T03:36:50;95532.31;;;20.26;79.88
20021;BME280;10171;42.694;23.318;2023-09-07T03:39:15;95443.69;;;19.69;80.10
20021;BME280;10171;42.694;23.318;2023-09-07T03:41:40;95528.31;;;20.14;80.73
20021;BME280;10171;42.694;23.318;2023-09-07T03:44:06;95521.63;;;20.12;80.99
20021;BME280;10171;42.694;23.318;2023-09-07T03:46:31;95532.66;;;20.14;80.73
20021;BME280;10171;42.694;23.318;2023-09-07T03:48:57;95532.44;;;20.07;81.44
20021;BME280;10171;42.694;23.318;2023-09-07T03:51:22;95531.00;;;19.95;81.73
20021;BME280;10171;42.694;23.318;2023-09-07T03:53:48;95536.03;;;19.97;81.86
20021;BME280;10171;42.694;23.318;2023-09-07T03:56:13;95535.66;;;19.92;81.82
20021;BME280;10171;42.694;23.318;2023-09-07T03:58:38;95544.84;;;19.86;82.50
20021;BME280;10171;42.694;23.318;2023-09-07T04:01:04;95551.38;;;19.90;82.86
20021;BME280;10171;42.694;23.318;2023-09-07T04:03:30;95551.22;;;19.92;82.34
20021;BME280;10171;42.694;23.318;2023-09-07T04:05:55;95561.44;;;19.93;82.17
20021;BME280;10171;42.694;23.318;2023-09-07T04:08:21;95555.13;;;19.96;82.23
20021;BME280;10171;42.694;23.318;2023-09-07T04:10:46;95551.59;;;19.97;82.78
20021;BME280;10171;42.694;23.318;2023-09-07T04:13:11;95553.97;;;19.90;82.87
20021;BME280;10171;42.694;23.318;2023-09-07T04:15:44;95544.59;;;19.80;83.54
20021;BME280;10171;42.694;23.318;2023-09-07T04:18:11;95548.72;;;19.73;83.89
20021;BME280;10171;42.694;23.318;2023-09-07T04:20:38;95542.00;;;19.80;84.20
20021;BME280;10171;42.694;23.318;2023-09-07T04:23:04;95552.91;;;19.83;83.97
20021;BME280;10171;42.694;23.318;2023-09-07T04:25:30;95555.78;;;19.80;84.11
20021;BME280;10171;42.694;23.318;2023-09-07T04:27:55;95553.41;;;19.87;84.07
20021;BME280;10171;42.694;23.318;2023-09-07T04:30:22;95553.03;;;19.82;84.09
20021;BME280;10171;42.694;23.318;2023-09-07T04:32:47;95557.72;;;19.78;84.50
20021;BME280;10171;42.694;23.318;2023-09-07T04:35:13;95549.94;;;19.78;84.12
20021;BME280;10171;42.694;23.318;2023-09-07T04:37:41;95554.69;;;19.83;83.82
20021;BME280;10171;42.694;23.318;2023-09-07T04:40:07;95556.09;;;19.77;83.69
20021;BME280;10171;42.694;23.318;2023-09-07T04:42:33;95546.00;;;19.74;83.61
20021;BME280;10171;42.694;23.318;2023-09-07T04:44:58;95561.75;;;19.90;83.34
20021;BME280;10171;42.694;23.318;2023-09-07T04:47:24;95557.06;;;19.94;82.75
20021;BME280;10171;42.694;23.318;2023-09-07T04:49:49;95565.13;;;20.00;82.39
20021;BME280;10171;42.694;23.318;2023-09-07T04:52:18;95571.06;;;20.10;81.74
20021;BME280;10171;42.694;23.318;2023-09-07T04:54:44;95571.06;;;20.10;81.59
20021;BME280;10171;42.694;23.318;2023-09-07T04:57:10;95573.28;;;20.05;82.05
20021;BME280;10171;42.694;23.318;2023-09-07T04:59:36;95577.94;;;20.02;82.04
20021;BME280;10171;42.694;23.318;2023-09-07T05:02:02;95567.59;;;19.92;81.86
20021;BME280;10171;42.694;23.318;2023-09-07T05:04:28;95560.03;;;19.99;81.70
20021;BME280;10171;42.694;23.318;2023-09-07T05:06:55;95571.34;;;20.07;81.36
20021;BME280;10171;42.694;23.318;2023-09-07T05:09:21;95560.16;;;20.07;81.07
20021;BME280;10171;42.694;23.318;2023-09-07T05:11:46;95573.75;;;20.18;80.41
20021;BME280;10171;42.694;23.318;2023-09-07T05:14:12;95563.56;;;20.07;81.02
20021;BME280;10171;42.694;23.318;2023-09-07T05:16:37;95569.53;;;20.17;81.39
20021;BME280;10171;42.694;23.318;2023-09-07T05:19:03;95568.69;;;20.17;81.47
20021;BME280;10171;42.694;23.318;2023-09-07T05:21:28;95565.78;;;20.02;81.62
20021;BME280;10171;42.694;23.318;2023-09-07T05:23:54;95572.53;;;20.13;81.44
20021;BME280;10171;42.694;23.318;2023-09-07T05:26:22;95582.78;;;20.14;81.55
20021;BME280;10171;42.694;23.318;2023-09-07T05:28:51;95561.84;;;19.98;81.67
20021;BME280;10171;42.694;23.318;2023-09-07T05:31:16;95569.06;;;20.04;81.04
20021;BME280;10171;42.694;23.318;2023-09-07T05:33:41;95563.88;;;19.95;81.62
20021;BME280;10171;42.694;23.318;2023-09-07T05:36:07;95572.44;;;20.05;81.15
20021;BME280;10171;42.694;23.318;2023-09-07T05:38:33;95572.69;;;20.11;80.58
20021;BME280;10171;42.694;23.318;2023-09-07T05:40:58;95576.63;;;20.15;80.14
20021;BME280;10171;42.694;23.318;2023-09-07T05:43:24;95578.47;;;20.23;79.50
20021;BME280;10171;42.694;23.318;2023-09-07T05:45:49;95585.75;;;20.37;79.13
20021;BME280;10171;42.694;23.318;2023-09-07T05:48:14;95583.69;;;20.40;78.94
20021;BME280;10171;42.694;23.318;2023-09-07T05:50:44;95583.75;;;20.48;79.02
20021;BME280;10171;42.694;23.318;2023-09-07T05:53:09;95577.81;;;20.56;78.23
20021;BME280;10171;42.694;23.318;2023-09-07T05:55:35;95580.88;;;20.51;77.71
20021;BME280;10171;42.694;23.318;2023-09-07T05:58:04;95579.16;;;20.60;77.45
20021;BME280;10171;42.694;23.318;2023-09-07T06:00:31;95582.72;;;20.59;77.65
20021;BME280;10171;42.694;23.318;2023-09-07T06:02:56;95574.19;;;20.49;77.86
20021;BME280;10171;42.694;23.318;2023-09-07T06:05:22;95583.91;;;20.64;77.76
20021;BME280;10171;42.694;23.318;2023-09-07T06:07:48;95569.81;;;20.49;77.77
20021;BME280;10171;42.694;23.318;2023-09-07T06:10:14;95585.19;;;20.60;77.48
20021;BME280;10171;42.694;23.318;2023-09-07T06:12:39;95578.78;;;20.55;77.42
20021;BME280;10171;42.694;23.318;2023-09-07T06:15:05;95588.88;;;20.75;77.59
20021;BME280;10171;42.694;23.318;2023-09-07T06:17:31;95586.94;;;20.77;77.19
20021;BME280;10171;42.694;23.318;2023-09-07T06:19:57;95585.59;;;20.91;76.41
20021;BME280;10171;42.694;23.318;2023-09-07T06:22:22;95581.28;;;20.99;75.03
20021;BME280;10171;42.694;23.318;2023-09-07T06:24:48;95589.88;;;21.17;74.39
20021;BME280;10171;42.694;23.318;2023-09-07T06:27:14;95587.38;;;21.33;73.36
20021;BME280;10171;42.694;23.318;2023-09-07T06:29:39;95585.81;;;21.48;71.80
20021;BME280;10171;42.694;23.318;2023-09-07T06:32:05;95585.34;;;21.52;71.51
20021;BME280;10171;42.694;23.318;2023-09-07T06:34:30;95593.22;;;21.60;70.97
20021;BME280;10171;42.694;23.318;2023-09-07T06:36:56;95595.31;;;21.57;70.71
20021;BME280;10171;42.694;23.318;2023-09-07T06:39:21;95597.81;;;21.66;70.84
20021;BME280;10171;42.694;23.318;2023-09-07T06:41:47;95600.91;;;21.70;69.99
20021;BME280;10171;42.694;23.318;2023-09-07T06:44:13;95588.94;;;21.77;70.00
20021;BME280;10171;42.694;23.318;2023-09-07T06:46:39;95594.03;;;21.94;69.35
20021;BME280;10171;42.694;23.318;2023-09-07T06:49:05;95595.00;;;21.93;69.85
20021;BME280;10171;42.694;23.318;2023-09-07T06:51:30;95592.25;;;21.95;69.08
20021;BME280;10171;42.694;23.318;2023-09-07T06:53:56;95585.25;;;21.95;68.81
20021;BME280;10171;42.694;23.318;2023-09-07T06:56:22;95598.94;;;22.05;68.50
20021;BME280;10171;42.694;23.318;2023-09-07T06:58:47;95587.41;;;22.08;68.10
20021;BME280;10171;42.694;23.318;2023-09-07T07:01:13;95597.19;;;22.14;68.26
20021;BME280;10171;42.694;23.318;2023-09-07T07:03:38;95592.66;;;22.16;67.26
20021;BME280;10171;42.694;23.318;2023-09-07T07:06:04;95587.44;;;22.16;66.90
20021;BME280;10171;42.694;23.318;2023-09-07T07:08:29;95597.88;;;22.24;67.57
20021;BME280;10171;42.694;23.318;2023-09-07T07:10:55;95584.03;;;22.23;66.73
20021;BME280;10171;42.694;23.318;2023-09-07T07:13:20;95585.53;;;22.34;66.65
20021;BME280;10171;42.694;23.318;2023-09-07T07:15:46;95581.44;;;22.31;65.27
20021;BME280;10171;42.694;23.318;2023-09-07T07:18:11;95588.31;;;22.40;65.84
20021;BME280;10171;42.694;23.318;2023-09-07T07:20:41;95587.69;;;22.54;64.01
20021;BME280;10171;42.694;23.318;2023-09-07T07:23:06;95595.69;;;22.60;63.76
20021;BME280;10171;42.694;23.318;2023-09-07T07:25:32;95594.06;;;22.67;62.99
20021;BME280;10171;42.694;23.318;2023-09-07T07:28:02;95605.94;;;22.54;64.03
20021;BME280;10171;42.694;23.318;2023-09-07T07:30:34;95604.97;;;22.63;63.74
20021;BME280;10171;42.694;23.318;2023-09-07T07:33:01;95596.34;;;22.54;63.94
20021;BME280;10171;42.694;23.318;2023-09-07T07:35:33;95599.28;;;22.59;63.83
20021;BME280;10171;42.694;23.318;2023-09-07T07:38:00;95585.59;;;22.49;61.70
20021;BME280;10171;42.694;23.318;2023-09-07T07:40:25;95615.22;;;22.64;62.87
20021;BME280;10171;42.694;23.318;2023-09-07T07:42:52;95610.50;;;22.68;61.86
20021;BME280;10171;42.694;23.318;2023-09-07T07:45:18;95603.19;;;22.63;62.10
20021;BME280;10171;42.694;23.318;2023-09-07T07:47:48;95609.06;;;22.65;61.41
20021;BME280;10171;42.694;23.318;2023-09-07T07:50:14;95613.94;;;22.68;60.64
20021;BME280;10171;42.694;23.318;2023-09-07T07:52:40;95612.78;;;22.71;60.54
20021;BME280;10171;42.694;23.318;2023-09-07T07:55:06;95612.78;;;22.71;60.92
20021;BME280;10171;42.694;23.318;2023-09-07T07:57:32;95611.31;;;22.60;60.54
20021;BME280;10171;42.694;23.318;2023-09-07T07:59:58;95617.19;;;22.62;60.74
20021;BME280;10171;42.694;23.318;2023-09-07T08:02:23;95619.16;;;22.68;59.66
20021;BME280;10171;42.694;23.318;2023-09-07T08:04:49;95606.44;;;22.57;59.64
20021;BME280;10171;42.694;23.318;2023-09-07T08:07:14;95611.66;;;22.65;60.79
20021;BME280;10171;42.694;23.318;2023-09-07T08:09:40;95613.44;;;22.65;57.82
20021;BME280;10171;42.694;23.318;2023-09-07T08:12:05;95608.22;;;22.81;58.66
20021;BME280;10171;42.694;23.318;2023-09-07T08:14:32;95609.53;;;22.85;58.06
20021;BME280;10171;42.694;23.318;2023-09-07T08:16:58;95597.16;;;22.87;57.65
20021;BME280;10171;42.694;23.318;2023-09-07T08:19:23;95600.75;;;22.94;57.96
20021;BME280;10171;42.694;23.318;2023-09-07T08:21:50;95606.78;;;23.02;58.41
20021;BME280;10171;42.694;23.318;2023-09-07T08:24:15;95600.63;;;23.19;58.18
20021;BME280;10171;42.694;23.318;2023-09-07T08:26:41;95602.56;;;23.25;57.03
20021;BME280;10171;42.694;23.318;2023-09-07T08:29:08;95602.22;;;23.28;56.99
20021;BME280;10171;42.694;23.318;2023-09-07T08:31:36;95591.94;;;23.27;56.00
20021;BME280;10171;42.694;23.318;2023-09-07T08:34:05;95595.41;;;23.19;56.81
20021;BME280;10171;42.694;23.318;2023-09-07T08:36:32;95598.78;;;23.28;55.20
20021;BME280;10171;42.694;23.318;2023-09-07T08:39:00;95602.53;;;23.41;55.05
20021;BME280;10171;42.694;23.318;2023-09-07T08:41:32;95610.50;;;23.48;54.57
20021;BME280;10171;42.694;23.318;2023-09-07T08:44:04;95600.91;;;23.40;56.31
20021;BME280;10171;42.694;23.318;2023-09-07T08:46:31;95597.97;;;23.43;54.23
20021;BME280;10171;42.694;23.318;2023-09-07T08:48:57;95592.88;;;23.58;54.93
20021;BME280;10171;42.694;23.318;2023-09-07T08:51:25;95587.66;;;23.58;54.66
20021;BME280;10171;42.694;23.318;2023-09-07T08:53:53;95584.25;;;23.57;54.36
20021;BME280;10171;42.694;23.318;2023-09-07T08:56:20;95579.00;;;23.65;53.53
20021;BME280;10171;42.694;23.318;2023-09-07T08:58:46;95587.13;;;23.70;53.20
20021;BME280;10171;42.694;23.318;2023-09-07T09:01:15;95582.88;;;23.77;54.07
20021;BME280;10171;42.694;23.318;2023-09-07T09:03:42;95584.84;;;23.83;54.45
20021;BME280;10171;42.694;23.318;2023-09-07T09:06:08;95584.19;;;23.81;53.53
20021;BME280;10171;42.694;23.318;2023-09-07T09:08:56;95585.75;;;23.98;53.52
20021;BME280;10171;42.694;23.318;2023-09-07T09:11:23;95593.56;;;24.06;52.54
20021;BME280;10171;42.694;23.318;2023-09-07T09:13:50;95573.28;;;24.16;51.83
20021;BME280;10171;42.694;23.318;2023-09-07T09:16:16;95589.34;;;24.27;50.72
20021;BME280;10171;42.694;23.318;2023-09-07T09:18:53;95586.63;;;24.21;50.89
20021;BME280;10171;42.694;23.318;2023-09-07T09:21:19;95575.16;;;24.30;51.80
20021;BME280;10171;42.694;23.318;2023-09-07T09:23:53;95571.56;;;24.31;52.73
20021;BME280;10171;42.694;23.318;2023-09-07T09:26:19;95566.91;;;24.41;52.33
20021;BME280;10171;42.694;23.318;2023-09-07T09:28:45;95570.56;;;24.32;52.41
20021;BME280;10171;42.694;23.318;2023-09-07T09:31:11;95570.16;;;24.43;53.89
20021;BME280;10171;42.694;23.318;2023-09-07T09:33:41;95566.91;;;24.41;50.08
20021;BME280;10171;42.694;23.318;2023-09-07T09:36:08;95563.59;;;24.55;47.99
20021;BME280;10171;42.694;23.318;2023-09-07T09:38:35;95568.75;;;24.63;47.72
20021;BME280;10171;42.694;23.318;2023-09-07T09:41:01;95558.41;;;24.69;49.37
20021;BME280;10171;42.694;23.318;2023-09-07T09:43:28;95559.03;;;24.71;47.07
20021;BME280;10171;42.694;23.318;2023-09-07T09:45:54;95563.00;;;24.67;51.41
20021;BME280;10171;42.694;23.318;2023-09-07T09:48:20;95550.78;;;24.82;49.13
20021;BME280;10171;42.694;23.318;2023-09-07T09:50:50;95552.00;;;24.94;48.60
20021;BME280;10171;42.694;23.318;2023-09-07T09:53:17;95558.13;;;25.01;47.38
20021;BME280;10171;42.694;23.318;2023-09-07T09:55:47;95554.63;;;25.17;45.96
20021;BME280;10171;42.694;23.318;2023-09-07T09:58:13;95546.63;;;25.10;46.42
20021;BME280;10171;42.694;23.318;2023-09-07T10:00:48;95540.09;;;24.92;47.36
20021;BME280;10171;42.694;23.318;2023-09-07T10:03:16;95550.09;;;24.88;46.84
20021;BME280;10171;42.694;23.318;2023-09-07T10:05:46;95556.22;;;24.81;47.89
20021;BME280;10171;42.694;23.318;2023-09-07T10:08:17;95550.69;;;24.76;48.35
20021;BME280;10171;42.694;23.318;2023-09-07T10:10:44;95540.66;;;24.65;49.19
20021;BME280;10171;42.694;23.318;2023-09-07T10:13:14;95549.47;;;24.64;47.21
20021;BME280;10171;42.694;23.318;2023-09-07T10:15:39;95549.88;;;24.53;49.01
20021;BME280;10171;42.694;23.318;2023-09-07T10:18:06;95536.41;;;24.64;47.41
20021;BME280;10171;42.694;23.318;2023-09-07T10:20:54;95539.88;;;24.79;48.04
20021;BME280;10171;42.694;23.318;2023-09-07T10:23:21;95526.75;;;24.64;48.42
20021;BME280;10171;42.694;23.318;2023-09-07T10:25:50;95539.81;;;24.64;49.23
20021;BME280;10171;42.694;23.318;2023-09-07T10:28:21;95537.13;;;24.58;48.46
20021;BME280;10171;42.694;23.318;2023-09-07T10:31:00;95540.72;;;24.57;48.41
20021;BME280;10171;42.694;23.318;2023-09-07T10:33:29;95524.34;;;24.63;46.82
20021;BME280;10171;42.694;23.318;2023-09-07T10:35:54;95542.84;;;24.53;49.11
20021;BME280;10171;42.694;23.318;2023-09-07T10:38:20;95530.34;;;24.41;48.71
20021;BME280;10171;42.694;23.318;2023-09-07T10:40:47;95531.75;;;24.29;49.17
20021;BME280;10171;42.694;23.318;2023-09-07T10:43:13;95536.66;;;24.24;48.36
20021;BME280;10171;42.694;23.318;2023-09-07T10:45:38;95530.47;;;24.25;47.90
20021;BME280;10171;42.694;23.318;2023-09-07T10:48:04;95526.72;;;24.19;48.13
20021;BME280;10171;42.694;23.318;2023-09-07T10:50:29;95530.97;;;24.20;48.44
20021;BME280;10171;42.694;23.318;2023-09-07T10:52:55;95530.97;;;24.20;48.53
20021;BME280;10171;42.694;23.318;2023-09-07T10:55:21;95523.25;;;24.27;48.73
20021;BME280;10171;42.694;23.318;2023-09-07T10:57:47;95529.06;;;24.37;47.93
20021;BME280;10171;42.694;23.318;2023-09-07T11:00:14;95529.72;;;24.61;48.33
20021;BME280;10171;42.694;23.318;2023-09-07T11:02:43;95516.25;;;24.72;48.30
20021;BME280;10171;42.694;23.318;2023-09-07T11:05:08;95529.31;;;24.72;47.33
20021;BME280;10171;42.694;23.318;2023-09-07T11:07:36;95535.84;;;24.54;47.63
20021;BME280;10171;42.694;23.318;2023-09-07T11:10:05;95516.88;;;24.29;47.77
20021;BME280;10171;42.694;23.318;2023-09-07T11:12:37;95524.31;;;24.40;47.41
20021;BME280;10171;42.694;23.318;2023-09-07T11:15:03;95517.63;;;24.38;47.21
20021;BME280;10171;42.694;23.318;2023-09-07T11:17:29;95499.13;;;24.25;47.95
20021;BME280;10171;42.694;23.318;2023-09-07T11:19:55;95508.88;;;24.31;47.84
20021;BME280;10171;42.694;23.318;2023-09-07T11:22:21;95528.44;;;24.35;48.08
20021;BME280;10171;42.694;23.318;2023-09-07T11:24:47;95521.28;;;24.29;48.17
20021;BME280;10171;42.694;23.318;2023-09-07T11:27:13;95522.38;;;24.12;48.44
20021;BME280;10171;42.694;23.318;2023-09-07T11:29:38;95521.91;;;24.08;48.55
20021;BME280;10171;42.694;23.318;2023-09-07T11:32:11;95519.97;;;24.02;48.93
20021;BME280;10171;42.694;23.318;2023-09-07T11:34:48;95515.44;;;23.96;48.79
20021;BME280;10171;42.694;23.318;2023-09-07T11:37:18;95514.75;;;24.02;48.90
20021;BME280;10171;42.694;23.318;2023-09-07T11:39:44;95511.97;;;24.04;49.68
20021;BME280;10171;42.694;23.318;2023-09-07T11:42:09;95514.44;;;23.97;48.96
20021;BME280;10171;42.694;23.318;2023-09-07T11:44:35;95523.78;;;23.92;49.59
20021;BME280;10171;42.694;23.318;2023-09-07T11:47:01;95514.84;;;23.86;49.09
20021;BME280;10171;42.694;23.318;2023-09-07T11:49:26;95514.19;;;23.84;49.44
20021;BME280;10171;42.694;23.318;2023-09-07T11:51:51;95512.97;;;24.03;48.94
20021;BME280;10171;42.694;23.318;2023-09-07T11:54:17;95510.66;;;24.08;48.70
20021;BME280;10171;42.694;23.318;2023-09-07T11:56:42;95490.84;;;23.91;49.01
20021;BME280;10171;42.694;23.318;2023-09-07T11:59:11;95501.53;;;24.04;48.75
20021;BME280;10171;42.694;23.318;2023-09-07T12:01:37;95501.19;;;24.07;48.46
20021;BME280;10171;42.694;23.318;2023-09-07T12:04:05;95493.66;;;24.12;48.18
20021;BME280;10171;42.694;23.318;2023-09-07T12:06:31;95504.09;;;24.12;49.12
20021;BME280;10171;42.694;23.318;2023-09-07T12:09:05;95503.41;;;24.18;48.34
20021;BME280;10171;42.694;23.318;2023-09-07T12:11:32;95493.03;;;24.10;48.98
20021;BME280;10171;42.694;23.318;2023-09-07T12:13:57;95493.53;;;24.05;48.48
20021;BME280;10171;42.694;23.318;2023-09-07T12:16:24;95492.19;;;24.09;47.90
20021;BME280;10171;42.694;23.318;2023-09-07T12:18:50;95494.81;;;24.09;48.38
20021;BME280;10171;42.694;23.318;2023-09-07T12:21:15;95501.00;;;24.08;47.91
20021;BME280;10171;42.694;23.318;2023-09-07T12:23:40;95485.63;;;24.13;47.50
20021;BME280;10171;42.694;23.318;2023-09-07T12:26:06;95481.75;;;24.09;48.00
20021;BME280;10171;42.694;23.318;2023-09-07T12:28:32;95494.47;;;24.12;47.89
20021;BME280;10171;42.694;23.318;2023-09-07T12:30:57;95483.38;;;24.10;47.73
20021;BME280;10171;42.694;23.318;2023-09-07T12:33:23;95486.47;;;24.14;47.84
20021;BME280;10171;42.694;23.318;2023-09-07T12:35:49;95485.81;;;24.12;47.16
20021;BME280;10171;42.694;23.318;2023-09-07T12:38:14;95483.72;;;24.07;47.77
20021;BME280;10171;42.694;23.318;2023-09-07T12:40:43;95490.41;;;24.10;47.69
20021;BME280;10171;42.694;23.318;2023-09-07T12:43:09;95496.56;;;24.17;47.50
20021;BME280;10171;42.694;23.318;2023-09-07T12:45:35;95501.16;;;24.15;48.44
20021;BME280;10171;42.694;23.318;2023-09-07T12:48:00;95495.44;;;24.11;47.92